sensor_id;sensor_type;location;lat;lon;timestamp;P1;durP1;ratioP1;P2;durP2;ratioP2
7613;SDS011;3848;42.016;23.098;2024-03-06T00:02:19;11.53;;;7.50;;
7613;SDS011;3848;42.016;23.098;2024-03-06T00:04:48;12.60;;;7.60;;
7613;SDS011;3848;42.016;23.098;2024-03-06T00:07:14;12.67;;;6.97;;
7613;SDS011;3848;42.016;23.098;2024-03-06T00:09:42;15.87;;;7.50;;
7613;SDS011;3848;42.016;23.098;2024-03-06T00:12:09;19.97;;;8.30;;
7613;SDS011;3848;42.016;23.098;2024-03-06T00:14:36;15.93;;;8.20;;
7613;SDS011;3848;42.016;23.098;2024-03-06T00:17:04;15.27;;;7.57;;
7613;SDS011;3848;42.016;23.098;2024-03-06T00:19:32;12.10;;;7.77;;
7613;SDS011;3848;42.016;23.098;2024-03-06T00:22:00;10.47;;;7.20;;
7613;SDS011;3848;42.016;23.098;2024-03-06T00:24:27;13.90;;;8.27;;
7613;SDS011;3848;42.016;23.098;2024-03-06T00:26:54;14.80;;;6.80;;
7613;SDS011;3848;42.016;23.098;2024-03-06T00:29:21;15.63;;;8.23;;
7613;SDS011;3848;42.016;23.098;2024-03-06T00:31:48;15.00;;;7.80;;
7613;SDS011;3848;42.016;23.098;2024-03-06T00:34:15;13.67;;;8.50;;
7613;SDS011;3848;42.016;23.098;2024-03-06T00:36:42;16.97;;;7.53;;
7613;SDS011;3848;42.016;23.098;2024-03-06T00:39:11;13.07;;;7.23;;
7613;SDS011;3848;42.016;23.098;2024-03-06T00:41:39;16.20;;;8.07;;
7613;SDS011;3848;42.016;23.098;2024-03-06T00:44:07;14.30;;;8.43;;
7613;SDS011;3848;42.016;23.098;2024-03-06T00:46:34;16.20;;;8.60;;
7613;SDS011;3848;42.016;23.098;2024-03-06T00:49:01;14.00;;;8.00;;
7613;SDS011;3848;42.016;23.098;2024-03-06T00:51:28;15.13;;;8.47;;
7613;SDS011;3848;42.016;23.098;2024-03-06T00:53:55;15.53;;;8.87;;
7613;SDS011;3848;42.016;23.098;2024-03-06T00:56:24;18.07;;;7.70;;
7613;SDS011;3848;42.016;23.098;2024-03-06T00:58:51;14.10;;;8.10;;
7613;SDS011;3848;42.016;23.098;2024-03-06T01:01:18;18.87;;;8.43;;
7613;SDS011;3848;42.016;23.098;2024-03-06T01:03:45;16.60;;;7.60;;
7613;SDS011;3848;42.016;23.098;2024-03-06T01:06:12;14.30;;;7.73;;
7613;SDS011;3848;42.016;23.098;2024-03-06T01:08:39;15.27;;;8.40;;
7613;SDS011;3848;42.016;23.098;2024-03-06T01:11:06;12.33;;;7.23;;
7613;SDS011;3848;42.016;23.098;2024-03-06T01:13:34;12.87;;;7.67;;
7613;SDS011;3848;42.016;23.098;2024-03-06T01:16:01;14.87;;;7.60;;
7613;SDS011;3848;42.016;23.098;2024-03-06T01:18:28;18.53;;;9.23;;
7613;SDS011;3848;42.016;23.098;2024-03-06T01:20:55;17.20;;;9.43;;
7613;SDS011;3848;42.016;23.098;2024-03-06T01:23:22;19.43;;;9.83;;
7613;SDS011;3848;42.016;23.098;2024-03-06T01:25:49;18.97;;;8.77;;
7613;SDS011;3848;42.016;23.098;2024-03-06T01:28:16;15.40;;;8.60;;
7613;SDS011;3848;42.016;23.098;2024-03-06T01:30:45;20.63;;;9.67;;
7613;SDS011;3848;42.016;23.098;2024-03-06T01:33:12;18.93;;;9.63;;
7613;SDS011;3848;42.016;23.098;2024-03-06T01:35:39;17.47;;;9.23;;
7613;SDS011;3848;42.016;23.098;2024-03-06T01:38:06;15.53;;;9.17;;
7613;SDS011;3848;42.016;23.098;2024-03-06T01:40:34;17.67;;;8.97;;
7613;SDS011;3848;42.016;23.098;2024-03-06T01:43:01;19.80;;;9.97;;
7613;SDS011;3848;42.016;23.098;2024-03-06T01:45:28;17.00;;;9.70;;
7613;SDS011;3848;42.016;23.098;2024-03-06T01:47:57;18.93;;;9.97;;
7613;SDS011;3848;42.016;23.098;2024-03-06T01:50:25;16.23;;;8.37;;
7613;SDS011;3848;42.016;23.098;2024-03-06T01:52:52;18.67;;;9.57;;
7613;SDS011;3848;42.016;23.098;2024-03-06T01:55:19;12.83;;;7.77;;
7613;SDS011;3848;42.016;23.098;2024-03-06T01:57:46;14.07;;;8.77;;
7613;SDS011;3848;42.016;23.098;2024-03-06T02:00:13;18.10;;;8.53;;
7613;SDS011;3848;42.016;23.098;2024-03-06T02:02:42;14.47;;;7.87;;
7613;SDS011;3848;42.016;23.098;2024-03-06T02:05:11;18.50;;;8.33;;
7613;SDS011;3848;42.016;23.098;2024-03-06T02:07:39;18.17;;;7.70;;
7613;SDS011;3848;42.016;23.098;2024-03-06T02:10:07;12.43;;;7.17;;
7613;SDS011;3848;42.016;23.098;2024-03-06T02:12:35;15.53;;;8.27;;
7613;SDS011;3848;42.016;23.098;2024-03-06T02:15:03;12.93;;;7.37;;
7613;SDS011;3848;42.016;23.098;2024-03-06T02:17:31;13.80;;;7.90;;
7613;SDS011;3848;42.016;23.098;2024-03-06T02:19:59;13.37;;;8.00;;
7613;SDS011;3848;42.016;23.098;2024-03-06T02:22:28;14.47;;;7.83;;
7613;SDS011;3848;42.016;23.098;2024-03-06T02:24:55;13.97;;;7.60;;
7613;SDS011;3848;42.016;23.098;2024-03-06T02:27:22;15.07;;;8.20;;
7613;SDS011;3848;42.016;23.098;2024-03-06T02:29:49;19.30;;;9.77;;
7613;SDS011;3848;42.016;23.098;2024-03-06T02:32:16;18.20;;;8.50;;
7613;SDS011;3848;42.016;23.098;2024-03-06T02:34:43;17.13;;;10.07;;
7613;SDS011;3848;42.016;23.098;2024-03-06T02:37:10;19.67;;;10.27;;
7613;SDS011;3848;42.016;23.098;2024-03-06T02:39:39;15.67;;;8.90;;
7613;SDS011;3848;42.016;23.098;2024-03-06T02:42:06;16.63;;;8.97;;
7613;SDS011;3848;42.016;23.098;2024-03-06T02:44:33;22.17;;;9.30;;
7613;SDS011;3848;42.016;23.098;2024-03-06T02:47:00;15.97;;;9.30;;
7613;SDS011;3848;42.016;23.098;2024-03-06T02:49:27;17.37;;;8.73;;
7613;SDS011;3848;42.016;23.098;2024-03-06T02:51:54;16.17;;;9.13;;
7613;SDS011;3848;42.016;23.098;2024-03-06T02:54:21;19.73;;;10.37;;
7613;SDS011;3848;42.016;23.098;2024-03-06T02:56:52;18.93;;;9.90;;
7613;SDS011;3848;42.016;23.098;2024-03-06T02:59:19;17.47;;;9.50;;
7613;SDS011;3848;42.016;23.098;2024-03-06T03:01:46;23.73;;;9.80;;
7613;SDS011;3848;42.016;23.098;2024-03-06T03:04:13;24.47;;;10.47;;
7613;SDS011;3848;42.016;23.098;2024-03-06T03:06:40;29.33;;;9.87;;
7613;SDS011;3848;42.016;23.098;2024-03-06T03:09:07;20.03;;;10.47;;
7613;SDS011;3848;42.016;23.098;2024-03-06T03:11:37;18.23;;;10.30;;
7613;SDS011;3848;42.016;23.098;2024-03-06T03:14:05;15.93;;;9.10;;
7613;SDS011;3848;42.016;23.098;2024-03-06T03:16:32;18.73;;;8.70;;
7613;SDS011;3848;42.016;23.098;2024-03-06T03:19:00;15.53;;;9.07;;
7613;SDS011;3848;42.016;23.098;2024-03-06T03:21:27;19.77;;;10.37;;
7613;SDS011;3848;42.016;23.098;2024-03-06T03:23:54;17.27;;;9.20;;
7613;SDS011;3848;42.016;23.098;2024-03-06T03:26:21;15.67;;;9.17;;
7613;SDS011;3848;42.016;23.098;2024-03-06T03:28:48;12.60;;;7.97;;
7613;SDS011;3848;42.016;23.098;2024-03-06T03:31:17;16.67;;;8.53;;
7613;SDS011;3848;42.016;23.098;2024-03-06T03:33:44;16.77;;;7.90;;
7613;SDS011;3848;42.016;23.098;2024-03-06T03:36:11;13.53;;;7.23;;
7613;SDS011;3848;42.016;23.098;2024-03-06T03:38:38;17.57;;;7.10;;
7613;SDS011;3848;42.016;23.098;2024-03-06T03:41:07;13.43;;;8.00;;
7613;SDS011;3848;42.016;23.098;2024-03-06T03:43:34;20.03;;;8.47;;
7613;SDS011;3848;42.016;23.098;2024-03-06T03:46:01;15.30;;;8.23;;
7613;SDS011;3848;42.016;23.098;2024-03-06T03:48:30;12.77;;;7.23;;
7613;SDS011;3848;42.016;23.098;2024-03-06T03:51:01;12.90;;;7.30;;
7613;SDS011;3848;42.016;23.098;2024-03-06T03:53:29;13.43;;;7.30;;
7613;SDS011;3848;42.016;23.098;2024-03-06T03:55:56;10.37;;;6.70;;
7613;SDS011;3848;42.016;23.098;2024-03-06T03:58:23;14.47;;;8.17;;
7613;SDS011;3848;42.016;23.098;2024-03-06T04:00:50;12.37;;;7.40;;
7613;SDS011;3848;42.016;23.098;2024-03-06T04:03:18;16.67;;;8.03;;
7613;SDS011;3848;42.016;23.098;2024-03-06T04:05:47;16.03;;;7.40;;
7613;SDS011;3848;42.016;23.098;2024-03-06T04:08:15;14.27;;;7.67;;
7613;SDS011;3848;42.016;23.098;2024-03-06T04:10:42;13.50;;;7.60;;
7613;SDS011;3848;42.016;23.098;2024-03-06T04:13:10;12.53;;;7.50;;
7613;SDS011;3848;42.016;23.098;2024-03-06T04:15:37;19.50;;;7.60;;
7613;SDS011;3848;42.016;23.098;2024-03-06T04:18:05;16.40;;;8.40;;
7613;SDS011;3848;42.016;23.098;2024-03-06T04:20:32;13.20;;;7.80;;
7613;SDS011;3848;42.016;23.098;2024-03-06T04:23:00;19.00;;;9.77;;
7613;SDS011;3848;42.016;23.098;2024-03-06T04:25:27;15.10;;;8.90;;
7613;SDS011;3848;42.016;23.098;2024-03-06T04:27:54;16.30;;;8.43;;
7613;SDS011;3848;42.016;23.098;2024-03-06T04:30:21;15.80;;;8.00;;
7613;SDS011;3848;42.016;23.098;2024-03-06T04:32:48;15.43;;;8.77;;
7613;SDS011;3848;42.016;23.098;2024-03-06T04:35:15;16.93;;;8.50;;
7613;SDS011;3848;42.016;23.098;2024-03-06T04:37:42;18.10;;;8.97;;
7613;SDS011;3848;42.016;23.098;2024-03-06T04:40:11;17.07;;;9.47;;
7613;SDS011;3848;42.016;23.098;2024-03-06T04:42:40;28.63;;;11.37;;
7613;SDS011;3848;42.016;23.098;2024-03-06T04:45:09;21.27;;;11.20;;
7613;SDS011;3848;42.016;23.098;2024-03-06T04:47:37;27.20;;;11.17;;
7613;SDS011;3848;42.016;23.098;2024-03-06T04:50:08;25.33;;;13.20;;
7613;SDS011;3848;42.016;23.098;2024-03-06T04:52:36;28.07;;;12.87;;
7613;SDS011;3848;42.016;23.098;2024-03-06T04:55:04;23.60;;;11.13;;
7613;SDS011;3848;42.016;23.098;2024-03-06T04:57:33;22.10;;;11.03;;
7613;SDS011;3848;42.016;23.098;2024-03-06T05:00:01;24.83;;;11.50;;
7613;SDS011;3848;42.016;23.098;2024-03-06T05:02:31;22.17;;;10.50;;
7613;SDS011;3848;42.016;23.098;2024-03-06T05:04:59;25.30;;;10.67;;
7613;SDS011;3848;42.016;23.098;2024-03-06T05:07:27;19.63;;;9.93;;
7613;SDS011;3848;42.016;23.098;2024-03-06T05:09:54;20.40;;;9.67;;
7613;SDS011;3848;42.016;23.098;2024-03-06T05:12:22;18.60;;;9.77;;
7613;SDS011;3848;42.016;23.098;2024-03-06T05:14:50;23.37;;;11.67;;
7613;SDS011;3848;42.016;23.098;2024-03-06T05:17:18;21.40;;;9.87;;
7613;SDS011;3848;42.016;23.098;2024-03-06T05:19:45;18.83;;;10.13;;
7613;SDS011;3848;42.016;23.098;2024-03-06T05:22:13;24.27;;;10.97;;
7613;SDS011;3848;42.016;23.098;2024-03-06T05:24:40;16.77;;;9.87;;
7613;SDS011;3848;42.016;23.098;2024-03-06T05:27:07;22.80;;;11.03;;
7613;SDS011;3848;42.016;23.098;2024-03-06T05:29:34;21.77;;;10.80;;
7613;SDS011;3848;42.016;23.098;2024-03-06T05:32:03;26.97;;;11.57;;
7613;SDS011;3848;42.016;23.098;2024-03-06T05:34:32;23.23;;;11.30;;
7613;SDS011;3848;42.016;23.098;2024-03-06T05:36:59;29.93;;;12.10;;
7613;SDS011;3848;42.016;23.098;2024-03-06T05:39:29;23.37;;;12.57;;
7613;SDS011;3848;42.016;23.098;2024-03-06T05:41:59;21.75;;;11.30;;
7613;SDS011;3848;42.016;23.098;2024-03-06T05:44:27;23.10;;;12.43;;
7613;SDS011;3848;42.016;23.098;2024-03-06T05:46:55;24.30;;;12.50;;
7613;SDS011;3848;42.016;23.098;2024-03-06T05:49:23;29.60;;;13.53;;
7613;SDS011;3848;42.016;23.098;2024-03-06T05:51:51;33.57;;;12.60;;
7613;SDS011;3848;42.016;23.098;2024-03-06T05:54:19;23.10;;;11.47;;
7613;SDS011;3848;42.016;23.098;2024-03-06T05:56:47;27.53;;;11.63;;
7613;SDS011;3848;42.016;23.098;2024-03-06T05:59:14;25.17;;;11.23;;
7613;SDS011;3848;42.016;23.098;2024-03-06T06:01:41;20.43;;;11.77;;
7613;SDS011;3848;42.016;23.098;2024-03-06T06:04:09;22.57;;;11.07;;
7613;SDS011;3848;42.016;23.098;2024-03-06T06:06:37;24.67;;;10.90;;
7613;SDS011;3848;42.016;23.098;2024-03-06T06:09:04;24.00;;;14.33;;
7613;SDS011;3848;42.016;23.098;2024-03-06T06:11:31;28.73;;;14.87;;
7613;SDS011;3848;42.016;23.098;2024-03-06T06:13:59;26.00;;;14.20;;
7613;SDS011;3848;42.016;23.098;2024-03-06T06:16:26;37.00;;;15.63;;
7613;SDS011;3848;42.016;23.098;2024-03-06T06:18:53;34.20;;;17.17;;
7613;SDS011;3848;42.016;23.098;2024-03-06T06:21:20;35.60;;;18.67;;
7613;SDS011;3848;42.016;23.098;2024-03-06T06:23:48;38.37;;;18.47;;
7613;SDS011;3848;42.016;23.098;2024-03-06T06:26:15;34.30;;;16.70;;
7613;SDS011;3848;42.016;23.098;2024-03-06T06:28:42;28.40;;;18.17;;
7613;SDS011;3848;42.016;23.098;2024-03-06T06:31:11;46.07;;;22.13;;
7613;SDS011;3848;42.016;23.098;2024-03-06T06:33:38;53.77;;;22.67;;
7613;SDS011;3848;42.016;23.098;2024-03-06T06:36:06;53.17;;;24.87;;
7613;SDS011;3848;42.016;23.098;2024-03-06T06:38:33;52.40;;;25.47;;
7613;SDS011;3848;42.016;23.098;2024-03-06T06:41:01;49.93;;;23.40;;
7613;SDS011;3848;42.016;23.098;2024-03-06T06:43:29;50.13;;;20.87;;
7613;SDS011;3848;42.016;23.098;2024-03-06T06:45:56;47.03;;;19.60;;
7613;SDS011;3848;42.016;23.098;2024-03-06T06:48:23;40.87;;;20.30;;
7613;SDS011;3848;42.016;23.098;2024-03-06T06:50:50;44.13;;;19.77;;
7613;SDS011;3848;42.016;23.098;2024-03-06T06:53:17;47.97;;;20.90;;
7613;SDS011;3848;42.016;23.098;2024-03-06T06:55:44;42.37;;;21.70;;
7613;SDS011;3848;42.016;23.098;2024-03-06T06:58:12;36.00;;;18.17;;
7613;SDS011;3848;42.016;23.098;2024-03-06T07:00:39;33.17;;;16.40;;
7613;SDS011;3848;42.016;23.098;2024-03-06T07:03:07;37.30;;;17.27;;
7613;SDS011;3848;42.016;23.098;2024-03-06T07:05:34;30.07;;;18.20;;
7613;SDS011;3848;42.016;23.098;2024-03-06T07:08:01;43.63;;;17.70;;
7613;SDS011;3848;42.016;23.098;2024-03-06T07:10:28;55.53;;;27.03;;
7613;SDS011;3848;42.016;23.098;2024-03-06T07:12:55;37.40;;;18.97;;
7613;SDS011;3848;42.016;23.098;2024-03-06T07:15:23;35.10;;;18.77;;
7613;SDS011;3848;42.016;23.098;2024-03-06T07:17:50;35.67;;;17.53;;
7613;SDS011;3848;42.016;23.098;2024-03-06T07:20:17;38.87;;;22.37;;
7613;SDS011;3848;42.016;23.098;2024-03-06T07:22:44;40.63;;;22.37;;
7613;SDS011;3848;42.016;23.098;2024-03-06T07:25:11;35.97;;;20.90;;
7613;SDS011;3848;42.016;23.098;2024-03-06T07:27:38;39.20;;;34.70;;
7613;SDS011;3848;42.016;23.098;2024-03-06T07:30:06;34.23;;;20.97;;
7613;SDS011;3848;42.016;23.098;2024-03-06T07:32:35;45.30;;;40.33;;
7613;SDS011;3848;42.016;23.098;2024-03-06T07:35:02;43.90;;;27.53;;
7613;SDS011;3848;42.016;23.098;2024-03-06T07:37:30;30.50;;;19.53;;
7613;SDS011;3848;42.016;23.098;2024-03-06T07:39:57;34.40;;;28.03;;
7613;SDS011;3848;42.016;23.098;2024-03-06T07:42:24;42.83;;;23.43;;
7613;SDS011;3848;42.016;23.098;2024-03-06T07:44:51;33.40;;;22.97;;
7613;SDS011;3848;42.016;23.098;2024-03-06T07:47:19;31.43;;;18.27;;
7613;SDS011;3848;42.016;23.098;2024-03-06T07:49:48;26.23;;;15.53;;
7613;SDS011;3848;42.016;23.098;2024-03-06T07:52:16;32.70;;;17.57;;
7613;SDS011;3848;42.016;23.098;2024-03-06T07:54:45;28.73;;;17.17;;
7613;SDS011;3848;42.016;23.098;2024-03-06T07:57:12;36.80;;;18.50;;
7613;SDS011;3848;42.016;23.098;2024-03-06T07:59:46;31.00;;;19.70;;
7613;SDS011;3848;42.016;23.098;2024-03-06T08:02:14;32.87;;;21.53;;
7613;SDS011;3848;42.016;23.098;2024-03-06T08:04:42;31.47;;;25.63;;
7613;SDS011;3848;42.016;23.098;2024-03-06T08:07:14;27.70;;;13.87;;
7613;SDS011;3848;42.016;23.098;2024-03-06T08:09:41;23.57;;;13.97;;
7613;SDS011;3848;42.016;23.098;2024-03-06T08:12:08;29.30;;;13.87;;
7613;SDS011;3848;42.016;23.098;2024-03-06T08:14:35;24.10;;;12.37;;
7613;SDS011;3848;42.016;23.098;2024-03-06T08:17:02;28.93;;;13.13;;
7613;SDS011;3848;42.016;23.098;2024-03-06T08:19:29;32.57;;;13.00;;
7613;SDS011;3848;42.016;23.098;2024-03-06T08:21:56;25.57;;;14.03;;
7613;SDS011;3848;42.016;23.098;2024-03-06T08:24:24;27.43;;;13.67;;
7613;SDS011;3848;42.016;23.098;2024-03-06T08:26:52;29.90;;;13.47;;
7613;SDS011;3848;42.016;23.098;2024-03-06T08:29:20;25.70;;;13.40;;
7613;SDS011;3848;42.016;23.098;2024-03-06T08:31:47;27.33;;;12.63;;
7613;SDS011;3848;42.016;23.098;2024-03-06T08:34:14;26.53;;;13.07;;
7613;SDS011;3848;42.016;23.098;2024-03-06T08:36:42;24.77;;;12.13;;
7613;SDS011;3848;42.016;23.098;2024-03-06T08:39:10;37.07;;;12.30;;
7613;SDS011;3848;42.016;23.098;2024-03-06T08:41:41;22.77;;;12.03;;
7613;SDS011;3848;42.016;23.098;2024-03-06T08:44:08;35.10;;;13.20;;
7613;SDS011;3848;42.016;23.098;2024-03-06T08:46:35;23.67;;;12.00;;
7613;SDS011;3848;42.016;23.098;2024-03-06T08:49:03;25.23;;;12.50;;
7613;SDS011;3848;42.016;23.098;2024-03-06T08:51:30;24.20;;;12.23;;
7613;SDS011;3848;42.016;23.098;2024-03-06T08:53:59;25.93;;;13.53;;
7613;SDS011;3848;42.016;23.098;2024-03-06T08:56:27;30.23;;;12.60;;
7613;SDS011;3848;42.016;23.098;2024-03-06T08:58:56;22.80;;;11.83;;
7613;SDS011;3848;42.016;23.098;2024-03-06T09:01:23;22.20;;;11.93;;
7613;SDS011;3848;42.016;23.098;2024-03-06T09:03:50;25.43;;;10.80;;
7613;SDS011;3848;42.016;23.098;2024-03-06T09:06:17;15.10;;;9.30;;
7613;SDS011;3848;42.016;23.098;2024-03-06T09:08:44;24.63;;;11.00;;
7613;SDS011;3848;42.016;23.098;2024-03-06T09:11:12;21.60;;;11.73;;
7613;SDS011;3848;42.016;23.098;2024-03-06T09:13:39;22.17;;;10.60;;
7613;SDS011;3848;42.016;23.098;2024-03-06T09:16:08;20.87;;;10.33;;
7613;SDS011;3848;42.016;23.098;2024-03-06T09:18:36;21.67;;;10.47;;
7613;SDS011;3848;42.016;23.098;2024-03-06T09:21:04;23.23;;;10.40;;
7613;SDS011;3848;42.016;23.098;2024-03-06T09:23:38;20.20;;;9.67;;
7613;SDS011;3848;42.016;23.098;2024-03-06T09:26:09;18.77;;;9.90;;
7613;SDS011;3848;42.016;23.098;2024-03-06T09:28:36;24.70;;;9.67;;
7613;SDS011;3848;42.016;23.098;2024-03-06T09:31:04;15.83;;;7.73;;
7613;SDS011;3848;42.016;23.098;2024-03-06T09:33:33;18.33;;;9.23;;
7613;SDS011;3848;42.016;23.098;2024-03-06T09:36:00;16.00;;;8.33;;
7613;SDS011;3848;42.016;23.098;2024-03-06T09:38:27;22.77;;;9.63;;
7613;SDS011;3848;42.016;23.098;2024-03-06T09:40:55;14.87;;;7.83;;
7613;SDS011;3848;42.016;23.098;2024-03-06T09:43:23;18.83;;;7.60;;
7613;SDS011;3848;42.016;23.098;2024-03-06T09:45:50;18.77;;;8.70;;
7613;SDS011;3848;42.016;23.098;2024-03-06T09:48:18;17.00;;;8.27;;
7613;SDS011;3848;42.016;23.098;2024-03-06T09:50:49;15.90;;;8.13;;
7613;SDS011;3848;42.016;23.098;2024-03-06T09:53:17;10.77;;;6.83;;
7613;SDS011;3848;42.016;23.098;2024-03-06T09:55:48;18.70;;;7.50;;
7613;SDS011;3848;42.016;23.098;2024-03-06T09:58:16;12.57;;;7.10;;
7613;SDS011;3848;42.016;23.098;2024-03-06T10:00:44;11.43;;;6.23;;
7613;SDS011;3848;42.016;23.098;2024-03-06T10:03:13;19.13;;;7.07;;
7613;SDS011;3848;42.016;23.098;2024-03-06T10:05:40;17.70;;;6.90;;
7613;SDS011;3848;42.016;23.098;2024-03-06T10:08:10;16.97;;;6.87;;
7613;SDS011;3848;42.016;23.098;2024-03-06T10:10:37;12.90;;;6.60;;
7613;SDS011;3848;42.016;23.098;2024-03-06T10:13:04;12.83;;;6.13;;
7613;SDS011;3848;42.016;23.098;2024-03-06T10:15:32;24.80;;;6.97;;
7613;SDS011;3848;42.016;23.098;2024-03-06T10:18:10;14.80;;;6.13;;
7613;SDS011;3848;42.016;23.098;2024-03-06T10:20:38;11.20;;;6.40;;
7613;SDS011;3848;42.016;23.098;2024-03-06T10:23:08;12.37;;;6.00;;
7613;SDS011;3848;42.016;23.098;2024-03-06T10:25:36;15.30;;;5.67;;
7613;SDS011;3848;42.016;23.098;2024-03-06T10:28:04;12.87;;;6.20;;
7613;SDS011;3848;42.016;23.098;2024-03-06T10:30:33;10.00;;;5.60;;
7613;SDS011;3848;42.016;23.098;2024-03-06T10:33:01;6.80;;;4.37;;
7613;SDS011;3848;42.016;23.098;2024-03-06T10:35:29;10.70;;;4.50;;
7613;SDS011;3848;42.016;23.098;2024-03-06T10:37:56;8.13;;;5.03;;
7613;SDS011;3848;42.016;23.098;2024-03-06T10:40:28;9.33;;;4.50;;
7613;SDS011;3848;42.016;23.098;2024-03-06T10:42:58;9.20;;;4.77;;
7613;SDS011;3848;42.016;23.098;2024-03-06T10:45:27;5.50;;;4.00;;
7613;SDS011;3848;42.016;23.098;2024-03-06T10:48:04;7.97;;;4.30;;
7613;SDS011;3848;42.016;23.098;2024-03-06T10:50:32;9.97;;;3.90;;
7613;SDS011;3848;42.016;23.098;2024-03-06T10:52:59;8.13;;;3.87;;
7613;SDS011;3848;42.016;23.098;2024-03-06T10:55:31;5.87;;;3.53;;
7613;SDS011;3848;42.016;23.098;2024-03-06T10:58:01;5.23;;;3.23;;
7613;SDS011;3848;42.016;23.098;2024-03-06T11:00:35;5.70;;;3.40;;
7613;SDS011;3848;42.016;23.098;2024-03-06T11:03:07;16.47;;;3.20;;
7613;SDS011;3848;42.016;23.098;2024-03-06T11:05:37;11.20;;;3.07;;
7613;SDS011;3848;42.016;23.098;2024-03-06T11:08:05;11.53;;;3.77;;
7613;SDS011;3848;42.016;23.098;2024-03-06T11:10:36;6.90;;;3.20;;
7613;SDS011;3848;42.016;23.098;2024-03-06T11:13:04;11.23;;;3.80;;
7613;SDS011;3848;42.016;23.098;2024-03-06T11:15:35;9.37;;;2.93;;
7613;SDS011;3848;42.016;23.098;2024-03-06T11:26:54;4.63;;;3.00;;
7613;SDS011;3848;42.016;23.098;2024-03-06T11:29:26;7.20;;;3.67;;
7613;SDS011;3848;42.016;23.098;2024-03-06T11:31:58;5.10;;;3.20;;
7613;SDS011;3848;42.016;23.098;2024-03-06T11:34:26;11.13;;;3.57;;
7613;SDS011;3848;42.016;23.098;2024-03-06T11:36:53;8.37;;;2.83;;
7613;SDS011;3848;42.016;23.098;2024-03-06T11:39:22;10.73;;;3.00;;
7613;SDS011;3848;42.016;23.098;2024-03-06T11:41:49;7.20;;;4.10;;
7613;SDS011;3848;42.016;23.098;2024-03-06T11:44:18;15.73;;;5.37;;
7613;SDS011;3848;42.016;23.098;2024-03-06T11:46:48;10.67;;;4.00;;
7613;SDS011;3848;42.016;23.098;2024-03-06T11:49:19;9.80;;;3.53;;
7613;SDS011;3848;42.016;23.098;2024-03-06T11:51:47;7.07;;;3.70;;
7613;SDS011;3848;42.016;23.098;2024-03-06T11:54:14;6.70;;;4.53;;
7613;SDS011;3848;42.016;23.098;2024-03-06T11:56:43;7.33;;;3.83;;
7613;SDS011;3848;42.016;23.098;2024-03-06T11:59:13;4.43;;;3.40;;
7613;SDS011;3848;42.016;23.098;2024-03-06T12:01:40;11.70;;;3.10;;
7613;SDS011;3848;42.016;23.098;2024-03-06T12:04:08;7.03;;;3.00;;
7613;SDS011;3848;42.016;23.098;2024-03-06T12:06:35;4.83;;;3.30;;
7613;SDS011;3848;42.016;23.098;2024-03-06T12:09:04;6.70;;;3.63;;
7613;SDS011;3848;42.016;23.098;2024-03-06T12:11:36;6.67;;;2.93;;
7613;SDS011;3848;42.016;23.098;2024-03-06T12:14:03;7.40;;;3.13;;
7613;SDS011;3848;42.016;23.098;2024-03-06T12:16:32;5.43;;;3.13;;
7613;SDS011;3848;42.016;23.098;2024-03-06T12:18:59;8.17;;;3.33;;
7613;SDS011;3848;42.016;23.098;2024-03-06T12:21:30;10.83;;;3.93;;
7613;SDS011;3848;42.016;23.098;2024-03-06T12:24:03;7.60;;;4.37;;
7613;SDS011;3848;42.016;23.098;2024-03-06T12:26:31;7.80;;;4.20;;
7613;SDS011;3848;42.016;23.098;2024-03-06T12:29:05;6.13;;;3.00;;
7613;SDS011;3848;42.016;23.098;2024-03-06T12:31:34;5.30;;;3.30;;
7613;SDS011;3848;42.016;23.098;2024-03-06T12:34:03;9.80;;;3.50;;
7613;SDS011;3848;42.016;23.098;2024-03-06T12:36:31;7.67;;;3.50;;
7613;SDS011;3848;42.016;23.098;2024-03-06T12:39:00;4.60;;;3.07;;
7613;SDS011;3848;42.016;23.098;2024-03-06T12:41:28;7.57;;;3.43;;
7613;SDS011;3848;42.016;23.098;2024-03-06T12:43:55;6.97;;;3.93;;
7613;SDS011;3848;42.016;23.098;2024-03-06T12:46:23;11.73;;;4.30;;
7613;SDS011;3848;42.016;23.098;2024-03-06T12:48:53;11.50;;;4.27;;
7613;SDS011;3848;42.016;23.098;2024-03-06T12:51:21;8.07;;;4.33;;
7613;SDS011;3848;42.016;23.098;2024-03-06T12:53:49;6.37;;;4.10;;
7613;SDS011;3848;42.016;23.098;2024-03-06T12:56:16;8.30;;;4.03;;
7613;SDS011;3848;42.016;23.098;2024-03-06T12:58:44;4.80;;;3.13;;
7613;SDS011;3848;42.016;23.098;2024-03-06T13:01:11;6.57;;;2.97;;
7613;SDS011;3848;42.016;23.098;2024-03-06T13:03:38;4.10;;;2.40;;
7613;SDS011;3848;42.016;23.098;2024-03-06T13:06:07;5.33;;;3.07;;
7613;SDS011;3848;42.016;23.098;2024-03-06T13:08:34;3.73;;;2.43;;
7613;SDS011;3848;42.016;23.098;2024-03-06T13:11:01;6.47;;;3.70;;
7613;SDS011;3848;42.016;23.098;2024-03-06T13:13:28;4.43;;;2.80;;
7613;SDS011;3848;42.016;23.098;2024-03-06T13:15:58;4.50;;;3.03;;
7613;SDS011;3848;42.016;23.098;2024-03-06T13:18:25;5.77;;;3.57;;
7613;SDS011;3848;42.016;23.098;2024-03-06T13:20:52;9.50;;;5.67;;
7613;SDS011;3848;42.016;23.098;2024-03-06T13:23:20;5.37;;;3.57;;
7613;SDS011;3848;42.016;23.098;2024-03-06T13:25:49;8.63;;;3.37;;
7613;SDS011;3848;42.016;23.098;2024-03-06T13:28:15;4.97;;;3.90;;
7613;SDS011;3848;42.016;23.098;2024-03-06T13:30:42;7.77;;;3.97;;
7613;SDS011;3848;42.016;23.098;2024-03-06T13:33:12;6.67;;;3.33;;
7613;SDS011;3848;42.016;23.098;2024-03-06T13:35:39;6.57;;;3.53;;
7613;SDS011;3848;42.016;23.098;2024-03-06T13:38:09;17.07;;;4.63;;
7613;SDS011;3848;42.016;23.098;2024-03-06T13:40:38;9.10;;;4.43;;
7613;SDS011;3848;42.016;23.098;2024-03-06T13:43:06;7.27;;;3.47;;
7613;SDS011;3848;42.016;23.098;2024-03-06T13:45:33;7.03;;;3.50;;
7613;SDS011;3848;42.016;23.098;2024-03-06T13:48:02;5.13;;;3.20;;
7613;SDS011;3848;42.016;23.098;2024-03-06T13:50:41;6.07;;;3.60;;
7613;SDS011;3848;42.016;23.098;2024-03-06T13:53:09;6.60;;;3.23;;
7613;SDS011;3848;42.016;23.098;2024-03-06T13:55:36;8.90;;;3.97;;
7613;SDS011;3848;42.016;23.098;2024-03-06T13:58:04;14.43;;;3.77;;
7613;SDS011;3848;42.016;23.098;2024-03-06T14:00:33;10.47;;;4.27;;
7613;SDS011;3848;42.016;23.098;2024-03-06T14:03:04;10.07;;;4.07;;
7613;SDS011;3848;42.016;23.098;2024-03-06T14:05:31;4.17;;;2.80;;
7613;SDS011;3848;42.016;23.098;2024-03-06T14:07:58;3.33;;;2.43;;
7613;SDS011;3848;42.016;23.098;2024-03-06T14:10:25;3.23;;;2.80;;
7613;SDS011;3848;42.016;23.098;2024-03-06T14:12:53;5.20;;;2.73;;
7613;SDS011;3848;42.016;23.098;2024-03-06T14:15:25;4.53;;;2.30;;
7613;SDS011;3848;42.016;23.098;2024-03-06T14:17:53;4.53;;;3.27;;
7613;SDS011;3848;42.016;23.098;2024-03-06T14:20:20;4.90;;;2.67;;
7613;SDS011;3848;42.016;23.098;2024-03-06T14:22:48;4.07;;;2.83;;
7613;SDS011;3848;42.016;23.098;2024-03-06T14:25:15;7.33;;;3.87;;
7613;SDS011;3848;42.016;23.098;2024-03-06T14:27:43;10.53;;;4.10;;
7613;SDS011;3848;42.016;23.098;2024-03-06T14:30:11;10.80;;;4.90;;
7613;SDS011;3848;42.016;23.098;2024-03-06T14:32:45;7.80;;;3.77;;
7613;SDS011;3848;42.016;23.098;2024-03-06T14:35:12;8.20;;;4.60;;
7613;SDS011;3848;42.016;23.098;2024-03-06T14:37:40;10.43;;;5.77;;
7613;SDS011;3848;42.016;23.098;2024-03-06T14:40:08;6.33;;;4.13;;
7613;SDS011;3848;42.016;23.098;2024-03-06T14:42:36;11.97;;;6.80;;
7613;SDS011;3848;42.016;23.098;2024-03-06T14:45:03;11.00;;;5.53;;
7613;SDS011;3848;42.016;23.098;2024-03-06T14:47:31;9.30;;;5.80;;
7613;SDS011;3848;42.016;23.098;2024-03-06T14:49:59;7.27;;;5.43;;
7613;SDS011;3848;42.016;23.098;2024-03-06T14:52:27;7.77;;;5.17;;
7613;SDS011;3848;42.016;23.098;2024-03-06T14:54:54;8.73;;;4.43;;
7613;SDS011;3848;42.016;23.098;2024-03-06T14:57:20;6.27;;;4.53;;
7613;SDS011;3848;42.016;23.098;2024-03-06T14:59:49;11.77;;;4.60;;